Time;durP1;ratioP1;P1;durP2;ratioP2;P2;SDS_P1;SDS_P2;PMS_P1;PMS_P2;Temp;Humidity;BMP_temperature;BMP_pressure;BME280_temperature;BME280_humidity;BME280_pressure;Samples;Min_cycle;Max_cycle;Signal;HPM_P1;HPM_P2
2022/06/07 00:00:35;;;;;;;5.53;2.80;;;;;;;16.74;67.67;100721.75;4991376;28;119721;-79
2022/06/07 00:03:01;;;;;;;5.88;2.80;;;;;;;16.72;67.53;100713.19;4987434;28;121043;-79
2022/06/07 00:05:27;;;;;;;8.73;3.00;;;;;;;16.74;68.13;100716.22;4993582;28;120230;-79
2022/06/07 00:07:54;;;;;;;9.30;3.33;;;;;;;16.68;68.02;100713.41;4983761;28;119680;-79
2022/06/07 00:10:25;;;;;;;11.27;2.85;;;;;;;16.72;68.06;100716.72;4977596;28;119960;-79
2022/06/07 00:12:52;;;;;;;6.18;2.83;;;;;;;16.67;68.41;100716.69;4979778;28;120039;-79
2022/06/07 00:15:18;;;;;;;6.15;2.78;;;;;;;16.69;68.22;100717.69;4997505;28;119541;-79
2022/06/07 00:17:45;;;;;;;4.60;2.60;;;;;;;16.65;68.29;100725.44;4967412;28;121044;-79
2022/06/07 00:20:12;;;;;;;7.57;2.80;;;;;;;16.61;68.08;100713.84;4961784;28;121545;-79
2022/06/07 00:22:38;;;;;;;9.68;2.75;;;;;;;16.61;67.96;100722.16;4993238;28;119866;-79
2022/06/07 00:25:09;;;;;;;7.00;3.13;;;;;;;16.58;67.79;100717.59;4997795;28;119364;-79
2022/06/07 00:27:35;;;;;;;6.95;2.97;;;;;;;16.54;67.76;100712.25;4996794;28;119237;-79
2022/06/07 00:30:03;;;;;;;6.03;3.45;;;;;;;16.47;68.08;100704.41;4996876;28;119599;-79
2022/06/07 00:32:29;;;;;;;9.10;3.05;;;;;;;16.48;68.49;100705.91;4980427;28;119475;-78
2022/06/07 00:34:55;;;;;;;7.38;2.97;;;;;;;16.49;68.41;100712.22;4996999;28;119750;-79
2022/06/07 00:37:21;;;;;;;7.20;2.92;;;;;;;16.48;68.39;100710.69;4976623;28;119679;-79
2022/06/07 00:39:47;;;;;;;8.82;4.10;;;;;;;16.46;68.50;100708.41;4977191;28;119768;-79
2022/06/07 00:42:13;;;;;;;11.57;3.55;;;;;;;16.41;67.98;100695.28;4990271;28;120040;-79
2022/06/07 00:44:44;;;;;;;8.30;3.67;;;;;;;16.43;68.06;100695.56;4984768;28;120478;-78
2022/06/07 00:47:18;;;;;;;7.72;3.17;;;;;;;16.39;68.29;100691.50;4997646;28;119378;-79
2022/06/07 00:49:55;;;;;;;7.32;3.25;;;;;;;16.32;68.54;100678.09;4977971;28;119975;-78
2022/06/07 00:52:24;;;;;;;6.75;3.60;;;;;;;16.35;67.98;100686.19;4996034;28;118836;-79
2022/06/07 00:54:50;;;;;;;7.47;3.83;;;;;;;16.34;68.16;100690.22;4976267;28;119805;-78
2022/06/07 00:57:27;;;;;;;6.25;3.72;;;;;;;16.29;68.46;100679.81;4995433;28;119512;-78
2022/06/07 00:59:53;;;;;;;12.35;4.05;;;;;;;16.33;68.80;100677.63;4974722;28;121941;-79
2022/06/07 01:02:21;;;;;;;7.13;3.63;;;;;;;16.32;69.04;100676.06;4976768;28;119968;-79
2022/06/07 01:04:47;;;;;;;6.60;3.55;;;;;;;16.30;68.75;100677.81;4964970;28;119888;-78
2022/06/07 01:12:53;;;;;;;7.07;4.13;;;;;;;16.33;68.63;100674.84;4976587;28;119571;-79
2022/06/07 01:15:22;;;;;;;9.32;3.90;;;;;;;16.34;68.75;100672.84;4979036;28;120476;-79
2022/06/07 01:17:49;;;;;;;8.32;4.20;;;;;;;16.33;68.85;100669.31;4961029;28;120202;-78
2022/06/07 01:20:15;;;;;;;6.75;3.90;;;;;;;16.33;69.06;100663.78;4963812;28;119860;-78
2022/06/07 01:22:42;;;;;;;7.82;4.22;;;;;;;16.33;69.14;100661.00;4977112;28;119448;-79
2022/06/07 01:25:08;;;;;;;11.55;4.90;;;;;;;16.32;69.16;100658.72;4987562;28;120009;-79
2022/06/07 01:27:34;;;;;;;8.70;4.88;;;;;;;16.35;69.37;100658.50;5002017;28;119965;-79
2022/06/07 01:30:05;;;;;;;9.57;4.75;;;;;;;16.32;69.50;100651.16;4996784;28;119872;-79
2022/06/07 01:32:31;;;;;;;8.98;4.70;;;;;;;16.37;69.38;100656.00;4989471;28;120255;-79
2022/06/07 01:34:57;;;;;;;8.10;4.75;;;;;;;16.36;69.38;100657.25;4982123;28;119982;-79
2022/06/07 01:37:23;;;;;;;8.60;4.50;;;;;;;16.37;68.86;100644.94;4979126;28;119466;-79
2022/06/07 01:42:34;;;;;;;;;;;;;;;16.35;68.83;100647.44;4998120;28;120313;-79
2022/06/07 01:45:00;;;;;;;8.48;4.90;;;;;;;16.32;68.98;100631.78;4992769;28;119938;-79
2022/06/07 01:47:30;;;;;;;9.63;4.78;;;;;;;16.39;68.68;100636.13;4970231;28;122518;-78
2022/06/07 01:50:02;;;;;;;11.05;5.28;;;;;;;16.36;68.68;100632.34;4954748;28;119562;-79
2022/06/07 01:52:30;;;;;;;8.00;5.40;;;;;;;16.39;68.84;100630.59;4973860;28;119658;-79
2022/06/07 01:55:13;;;;;;;10.18;5.60;;;;;;;16.37;69.04;100617.25;4977413;28;120248;-79
2022/06/07 01:57:48;;;;;;;12.07;6.00;;;;;;;16.38;69.16;100624.31;4995366;28;119964;-79
2022/06/07 02:00:17;;;;;;;8.63;5.45;;;;;;;16.39;69.15;100625.81;4966856;28;119501;-79
2022/06/07 02:02:48;;;;;;;9.45;6.25;;;;;;;16.39;69.12;100619.53;4976788;28;119553;-78
2022/06/07 02:05:15;;;;;;;10.68;6.50;;;;;;;16.40;68.93;100613.50;4954910;28;120683;-79
2022/06/07 02:07:45;;;;;;;10.15;6.45;;;;;;;16.35;68.80;100603.16;4992794;28;119488;-79
2022/06/07 02:10:17;;;;;;;11.35;6.57;;;;;;;16.39;68.90;100603.69;5000741;28;119766;-79
2022/06/07 02:12:42;;;;;;;8.95;6.43;;;;;;;16.38;69.23;100599.38;4976032;28;119975;-79
2022/06/07 02:15:09;;;;;;;10.95;7.00;;;;;;;16.36;69.05;100604.66;4969702;28;119510;-78
2022/06/07 02:17:36;;;;;;;15.57;7.40;;;;;;;16.34;69.25;100590.56;4989812;28;119442;-79
2022/06/07 02:20:20;;;;;;;10.00;7.13;;;;;;;16.38;69.41;100601.41;4977082;28;119284;-79
2022/06/07 02:22:49;;;;;;;11.40;6.95;;;;;;;16.32;68.99;100584.72;4974926;28;119394;-79
2022/06/07 02:25:15;;;;;;;8.88;7.05;;;;;;;16.36;69.40;100585.28;4970238;28;119410;-79
2022/06/07 02:27:41;;;;;;;10.85;6.60;;;;;;;16.38;69.01;100593.09;4975665;28;119986;-79
2022/06/07 02:30:08;;;;;;;13.20;7.20;;;;;;;16.37;69.19;100597.88;4970802;28;119467;-79
2022/06/07 02:32:34;;;;;;;9.98;7.25;;;;;;;16.38;69.32;100590.34;5000153;28;119398;-79
2022/06/07 02:35:03;;;;;;;12.63;7.38;;;;;;;16.37;68.77;100578.50;4995454;28;119749;-79
2022/06/07 02:37:33;;;;;;;14.88;7.18;;;;;;;16.35;69.22;100586.53;4960803;28;119504;-79
2022/06/07 02:39:59;;;;;;;12.82;7.20;;;;;;;16.36;69.43;100585.28;4972763;28;121351;-78
2022/06/07 02:42:28;;;;;;;11.48;7.30;;;;;;;16.37;69.47;100581.28;4971824;28;119719;-79
2022/06/07 02:44:54;;;;;;;8.93;6.88;;;;;;;16.36;68.87;100581.75;4976496;28;119846;-79
2022/06/07 02:47:20;;;;;;;13.80;7.03;;;;;;;16.34;69.02;100585.03;4992161;28;119880;-79
2022/06/07 02:49:52;;;;;;;11.77;7.30;;;;;;;16.27;69.17;100571.63;4979078;28;119449;-79
2022/06/07 02:52:20;;;;;;;9.75;7.00;;;;;;;16.33;69.30;100579.97;4975344;28;119208;-79
2022/06/07 02:54:56;;;;;;;12.88;7.55;;;;;;;16.34;69.55;100576.72;4978761;28;119340;-79
2022/06/07 02:57:22;;;;;;;9.80;7.55;;;;;;;16.32;69.74;100576.44;4985737;28;119929;-79
2022/06/07 02:59:49;;;;;;;10.77;8.05;;;;;;;16.33;69.42;100575.22;4995987;28;119496;-79
2022/06/07 03:02:14;;;;;;;9.38;7.95;;;;;;;16.32;69.48;100572.91;4977091;28;119449;-79
2022/06/07 03:04:40;;;;;;;11.77;7.93;;;;;;;16.33;69.62;100577.22;4982963;28;119440;-79
2022/06/07 03:07:07;;;;;;;12.52;7.88;;;;;;;16.35;69.29;100569.94;4974650;28;119768;-79
2022/06/07 03:09:33;;;;;;;13.90;8.50;;;;;;;16.32;69.57;100561.84;4975198;28;119391;-78
2022/06/07 03:12:02;;;;;;;10.98;8.05;;;;;;;16.37;69.55;100567.44;4994184;28;119469;-79
2022/06/07 03:14:29;;;;;;;11.35;8.43;;;;;;;16.40;69.63;100558.13;4990841;28;119973;-79
2022/06/07 03:16:55;;;;;;;10.73;8.15;;;;;;;16.41;69.37;100559.66;4985416;28;120322;-79
2022/06/07 03:19:28;;;;;;;10.52;7.75;;;;;;;16.43;69.28;100561.94;4982236;28;120272;-79
2022/06/07 03:21:54;;;;;;;13.93;9.18;;;;;;;16.42;69.56;100558.41;4977236;28;119487;-79
2022/06/07 03:24:21;;;;;;;12.88;8.32;;;;;;;16.43;69.35;100557.16;4996005;28;119525;-78
2022/06/07 03:26:51;;;;;;;11.60;9.32;;;;;;;16.44;69.65;100555.13;4977666;28;121419;-78
2022/06/07 03:29:17;;;;;;;15.07;8.88;;;;;;;16.43;69.54;100554.38;4987460;28;119322;-79
2022/06/07 03:31:44;;;;;;;12.25;9.75;;;;;;;16.38;69.64;100546.03;4978815;28;119955;-79
2022/06/07 03:34:12;;;;;;;13.50;10.02;;;;;;;16.44;69.74;100557.91;4976751;28;121378;-79
2022/06/07 03:36:40;;;;;;;11.90;9.80;;;;;;;16.48;69.97;100556.41;4979147;28;119550;-79
2022/06/07 03:39:08;;;;;;;17.02;10.32;;;;;;;16.51;69.69;100554.66;4994609;28;119693;-79
2022/06/07 03:41:38;;;;;;;14.00;10.55;;;;;;;16.52;69.59;100556.94;4988156;28;119664;-79
2022/06/07 03:44:15;;;;;;;13.95;9.95;;;;;;;16.51;69.50;100547.13;4990666;28;119750;-79
2022/06/07 03:46:47;;;;;;;12.25;10.15;;;;;;;16.54;69.73;100556.44;4957316;28;119920;-79
2022/06/07 03:49:16;;;;;;;12.93;11.38;;;;;;;16.52;69.71;100542.34;4974224;28;119490;-79
2022/06/07 03:51:43;;;;;;;14.73;11.50;;;;;;;16.57;69.96;100544.41;4985790;28;119423;-78
2022/06/07 03:54:10;;;;;;;16.20;11.57;;;;;;;16.57;69.79;100550.69;4974218;28;120179;-78
2022/06/07 03:56:38;;;;;;;13.43;11.55;;;;;;;16.57;69.63;100542.38;4978716;28;119570;-79
2022/06/07 03:59:06;;;;;;;15.70;12.18;;;;;;;16.57;69.95;100539.63;4990765;28;120103;-79
2022/06/07 04:01:32;;;;;;;21.63;13.07;;;;;;;16.57;70.03;100542.38;4997974;28;119624;-79
2022/06/07 04:04:04;;;;;;;18.60;13.43;;;;;;;16.61;70.29;100542.16;4996242;28;119422;-79
2022/06/07 04:06:38;;;;;;;18.08;13.40;;;;;;;16.60;70.17;100543.41;4988798;28;121503;-79
2022/06/07 04:09:11;;;;;;;18.25;14.15;;;;;;;16.61;70.29;100535.84;4998649;28;119415;-79
2022/06/07 04:11:41;;;;;;;17.60;14.25;;;;;;;16.61;69.96;100539.38;4991230;28;119576;-79
2022/06/07 04:14:08;;;;;;;17.05;13.85;;;;;;;16.65;70.10;100536.38;4977174;28;121908;-79
2022/06/07 04:16:35;;;;;;;18.63;14.80;;;;;;;16.65;69.68;100530.84;4990010;28;119757;-79
2022/06/07 04:19:08;;;;;;;;;;;;;;;16.64;69.86;100534.88;4977142;28;120118;-79
2022/06/07 04:21:34;;;;;;;16.63;13.95;;;;;;;16.66;69.99;100533.13;4964608;28;120678;-79
2022/06/07 04:24:12;;;;;;;18.25;14.70;;;;;;;16.69;70.18;100539.69;4977476;28;119685;-79
2022/06/07 04:26:39;;;;;;;21.55;16.40;;;;;;;16.67;70.04;100529.13;4977351;28;119934;-79
2022/06/07 04:29:06;;;;;;;20.83;15.15;;;;;;;16.70;70.14;100535.66;4961049;28;120087;-79
2022/06/07 04:31:34;;;;;;;21.20;15.70;;;;;;;16.71;70.18;100531.66;4972580;28;121156;-79
2022/06/07 04:34:08;;;;;;;18.33;14.93;;;;;;;16.74;69.96;100534.19;4963285;28;120807;-78
2022/06/07 04:36:35;;;;;;;21.38;14.90;;;;;;;16.71;69.97;100537.19;4974556;28;119696;-79
2022/06/07 04:39:04;;;;;;;21.95;15.35;;;;;;;16.76;69.82;100534.44;4977575;28;119542;-79
2022/06/07 04:41:38;;;;;;;21.17;16.17;;;;;;;16.73;70.21;100531.91;4976383;28;120067;-78
2022/06/07 04:44:07;;;;;;;19.05;16.08;;;;;;;16.76;70.08;100525.38;4981238;28;119404;-79
2022/06/07 04:46:33;;;;;;;21.10;17.20;;;;;;;16.77;70.36;100527.63;4978283;28;119388;-79
2022/06/07 04:49:06;;;;;;;23.77;17.42;;;;;;;16.84;70.39;100532.72;4966394;28;119582;-79
2022/06/07 04:51:35;;;;;;;20.25;16.63;;;;;;;16.87;70.06;100528.97;4978129;28;119416;-79
2022/06/07 04:54:14;;;;;;;21.50;16.80;;;;;;;16.84;69.88;100523.66;4985229;28;119517;-78
2022/06/07 04:56:44;;;;;;;20.02;16.58;;;;;;;16.87;70.38;100520.66;4996674;28;120150;-79
2022/06/07 04:59:12;;;;;;;22.20;18.27;;;;;;;16.91;70.34;100525.94;4976664;28;120497;-78
2022/06/07 05:01:43;;;;;;;20.65;16.50;;;;;;;16.94;70.30;100513.88;4982664;28;121369;-79
2022/06/07 05:04:16;;;;;;;21.90;18.05;;;;;;;16.96;70.31;100516.91;4960374;28;119964;-79
2022/06/07 05:06:43;;;;;;;22.95;17.00;;;;;;;16.97;69.91;100518.41;4980360;28;119941;-78
2022/06/07 05:09:24;;;;;;;21.48;17.30;;;;;;;16.96;70.13;100505.81;4985596;28;120037;-78
2022/06/07 05:12:00;;;;;;;22.17;17.75;;;;;;;16.97;70.18;100512.13;4981726;28;119508;-79
2022/06/07 05:14:32;;;;;;;23.15;18.10;;;;;;;16.99;70.09;100498.50;4978640;28;122237;-79
2022/06/07 05:16:58;;;;;;;22.90;18.10;;;;;;;16.96;70.10;100494.72;4990473;28;119567;-79
2022/06/07 05:19:29;;;;;;;25.30;19.05;;;;;;;16.98;70.34;100505.31;4972946;28;119551;-79
2022/06/07 05:22:03;;;;;;;22.15;18.58;;;;;;;16.99;70.22;100504.06;4997477;28;119781;-79
2022/06/07 05:24:34;;;;;;;23.85;18.15;;;;;;;17.05;69.98;100502.84;4968446;28;119956;-79
2022/06/07 05:27:04;;;;;;;20.45;17.27;;;;;;;16.98;70.19;100486.66;4960325;28;120856;-79
2022/06/07 05:29:51;;;;;;;19.13;16.25;;;;;;;17.08;70.21;100493.53;4980233;28;119478;-79
2022/06/07 05:32:36;;;;;;;19.02;15.88;;;;;;;17.10;70.25;100491.00;4978185;28;119267;-79
2022/06/07 05:35:05;;;;;;;21.88;16.98;;;;;;;17.15;70.29;100489.50;4959145;28;119541;-79
2022/06/07 05:37:34;;;;;;;21.38;17.05;;;;;;;17.18;70.37;100485.72;4993705;28;119596;-79
2022/06/07 05:40:13;;;;;;;18.95;15.82;;;;;;;17.17;70.19;100479.44;4996410;28;120189;-78
2022/06/07 05:42:40;;;;;;;20.08;16.88;;;;;;;17.22;70.16;100482.69;4980879;28;120185;-79
2022/06/07 05:45:07;;;;;;;20.80;16.20;;;;;;;17.18;70.03;100475.41;4989754;28;119431;-77
2022/06/07 05:47:33;;;;;;;20.20;15.27;;;;;;;17.25;69.74;100481.69;5006062;28;119631;-79
2022/06/07 05:50:01;;;;;;;20.80;16.60;;;;;;;17.24;69.78;100485.72;5014980;28;119477;-79
2022/06/07 05:52:27;;;;;;;18.98;16.70;;;;;;;17.23;69.88;100479.44;5017799;28;119384;-79
2022/06/07 05:54:57;;;;;;;19.10;16.25;;;;;;;17.25;69.88;100482.44;4983074;28;119507;-79
2022/06/07 05:57:23;;;;;;;19.77;15.80;;;;;;;17.25;69.87;100476.16;4962018;28;119807;-79
2022/06/07 05:59:49;;;;;;;20.65;17.27;;;;;;;17.28;70.33;100475.19;4983273;28;119407;-78
2022/06/07 06:02:16;;;;;;;22.90;18.35;;;;;;;17.32;70.41;100472.91;4969399;28;121069;-79
2022/06/07 06:04:42;;;;;;;20.05;16.92;;;;;;;17.34;70.42;100479.47;4984029;28;119774;-79
2022/06/07 06:07:09;;;;;;;20.75;17.63;;;;;;;17.39;70.42;100475.19;4948461;28;120505;-78
2022/06/07 06:12:31;;;;;;;25.55;18.40;;;;;;;17.43;70.45;100475.69;4988474;28;119847;-79
2022/06/07 06:15:05;;;;;;;;;;;;;;;17.41;69.85;100476.19;4979858;28;119695;-79
2022/06/07 06:17:31;;;;;;;21.95;18.08;;;;;;;17.36;69.99;100467.88;4987837;28;119792;-79
2022/06/07 06:20:05;;;;;;;;;;;;;;;17.39;70.00;100477.94;4972140;28;119455;-79
2022/06/07 06:22:35;;;;;;;20.70;17.70;;;;;;;17.39;69.93;100466.84;4971278;28;121059;-79
2022/06/07 06:25:05;;;;;;;21.88;17.05;;;;;;;17.39;69.98;100475.19;4986736;28;119462;-79
2022/06/07 06:27:32;;;;;;;18.02;16.15;;;;;;;17.36;69.81;100454.75;4958368;28;121359;-79
2022/06/07 06:30:01;;;;;;;19.45;17.33;;;;;;;17.36;69.97;100451.22;4990703;28;119716;-79
2022/06/07 06:32:28;;;;;;;20.55;17.20;;;;;;;17.34;69.81;100467.63;4976536;28;119434;-79
2022/06/07 06:34:54;;;;;;;20.05;16.95;;;;;;;17.32;69.89;100457.03;4989077;28;120068;-79
2022/06/07 06:37:27;;;;;;;20.42;17.80;;;;;;;17.33;70.27;100452.25;4974194;28;119459;-79
2022/06/07 06:39:53;;;;;;;18.08;16.15;;;;;;;17.32;69.77;100445.19;4988813;28;119992;-79
2022/06/07 06:42:20;;;;;;;22.48;17.60;;;;;;;17.26;69.89;100447.94;4994086;28;119456;-79
2022/06/07 06:45:04;;;;;;;;;;;;;;;17.25;69.78;100448.44;5006673;28;119454;-79
2022/06/07 06:47:30;;;;;;;20.95;16.67;;;;;;;17.25;70.03;100456.75;4972259;28;120087;-79
2022/06/07 06:49:57;;;;;;;19.75;16.75;;;;;;;17.26;69.37;100447.16;4984574;28;120147;-79
2022/06/07 06:52:22;;;;;;;18.50;16.48;;;;;;;17.22;69.50;100438.34;4986394;28;119838;-79
2022/06/07 06:54:49;;;;;;;20.25;16.65;;;;;;;17.24;69.61;100436.59;4985875;28;119748;-79
2022/06/07 06:57:21;;;;;;;18.67;16.35;;;;;;;17.26;69.77;100436.09;4994573;28;120066;-79
2022/06/07 06:59:47;;;;;;;19.27;17.13;;;;;;;17.29;69.88;100443.44;4981418;28;119347;-79
2022/06/07 07:02:13;;;;;;;22.60;17.80;;;;;;;17.34;70.20;100442.66;4993830;28;120168;-78
2022/06/07 07:05:02;;;;;;;19.02;16.67;;;;;;;17.40;69.68;100440.66;4985412;28;119659;-78
2022/06/07 07:07:29;;;;;;;19.35;17.23;;;;;;;17.42;69.51;100435.34;4989935;28;119502;-79
2022/06/07 07:09:55;;;;;;;20.80;16.95;;;;;;;17.45;68.98;100440.66;4985149;28;119729;-80
2022/06/07 07:12:22;;;;;;;18.38;16.42;;;;;;;17.47;69.64;100440.13;4975186;28;119335;-79
2022/06/07 07:14:57;;;;;;;19.75;17.38;;;;;;;17.46;69.59;100431.06;4986342;28;119879;-79
2022/06/07 07:17:28;;;;;;;20.70;17.85;;;;;;;17.54;69.77;100436.13;4984842;28;120772;-78
2022/06/07 07:19:57;;;;;;;17.42;15.70;;;;;;;17.55;69.35;100441.16;4989016;28;119769;-78
2022/06/07 07:22:24;;;;;;;18.75;16.75;;;;;;;17.55;69.06;100438.41;4992903;28;119697;-79
2022/06/07 07:24:51;;;;;;;19.40;15.20;;;;;;;17.55;68.57;100443.94;5003071;28;119551;-79
2022/06/07 07:27:19;;;;;;;15.73;13.57;;;;;;;17.51;68.17;100432.34;4973369;28;121363;-79
2022/06/07 07:29:46;;;;;;;18.27;14.27;;;;;;;17.54;68.62;100439.66;4972258;28;119990;-79
2022/06/07 07:32:19;;;;;;;17.13;14.93;;;;;;;17.52;68.87;100433.84;4975256;28;119462;-79
2022/06/07 07:34:52;;;;;;;18.45;15.65;;;;;;;17.55;69.22;100443.19;4986491;28;119794;-79
2022/06/07 07:37:19;;;;;;;16.88;14.52;;;;;;;17.53;68.32;100434.63;4973305;28;121828;-79
2022/06/07 07:39:48;;;;;;;18.63;14.95;;;;;;;17.55;68.18;100432.84;4988646;28;120230;-78
2022/06/07 07:42:18;;;;;;;17.65;15.68;;;;;;;17.53;68.39;100426.28;4976537;28;121525;-79
2022/06/07 07:44:54;;;;;;;17.85;15.52;;;;;;;17.52;68.33;100427.56;4973596;28;119425;-79
2022/06/07 07:47:22;;;;;;;18.23;15.07;;;;;;;17.57;68.56;100432.34;4980963;28;119533;-79
2022/06/07 07:49:48;;;;;;;17.48;15.65;;;;;;;17.55;68.62;100424.53;4994076;28;119747;-78
2022/06/07 07:52:18;;;;;;;15.25;13.65;;;;;;;17.57;68.56;100429.56;4963198;28;119838;-79
2022/06/07 07:54:46;;;;;;;21.67;15.48;;;;;;;17.59;68.65;100416.69;4994873;28;119660;-79
2022/06/07 07:57:12;;;;;;;19.08;17.02;;;;;;;17.55;68.87;100418.97;4991515;28;121942;-78
2022/06/07 07:59:39;;;;;;;19.42;16.67;;;;;;;17.58;68.69;100414.44;4994453;28;119635;-79
2022/06/07 08:02:11;;;;;;;18.95;16.65;;;;;;;17.62;69.24;100410.16;4962305;28;119434;-78
2022/06/07 08:04:36;;;;;;;20.05;17.90;;;;;;;17.63;68.99;100408.88;4977903;28;119505;-79
2022/06/07 08:07:05;;;;;;;21.27;17.30;;;;;;;17.62;68.72;100399.06;4974401;28;119247;-78
2022/06/07 08:09:30;;;;;;;18.85;16.35;;;;;;;17.61;68.74;100391.25;4974800;28;119958;-79
2022/06/07 08:11:56;;;;;;;22.25;18.05;;;;;;;17.56;68.62;100386.47;4979023;28;119404;-79
2022/06/07 08:14:23;;;;;;;19.73;16.98;;;;;;;17.57;68.91;100385.94;5006840;28;119697;-79
2022/06/07 08:16:49;;;;;;;20.15;16.88;;;;;;;17.51;68.31;100387.97;5001360;28;120004;-79
2022/06/07 08:19:15;;;;;;;23.60;17.63;;;;;;;17.48;68.45;100397.28;4993387;28;119443;-77
2022/06/07 08:21:41;;;;;;;23.75;17.83;;;;;;;17.45;68.87;100387.97;4986288;28;119534;-79
2022/06/07 08:24:07;;;;;;;19.90;17.83;;;;;;;17.39;68.93;100387.22;4992199;28;121745;-78
2022/06/07 08:26:33;;;;;;;20.88;18.13;;;;;;;17.39;69.08;100397.56;4998363;28;119446;-79
2022/06/07 08:28:59;;;;;;;20.73;17.98;;;;;;;17.44;69.30;100394.00;4989120;28;119634;-79
2022/06/07 08:31:28;;;;;;;22.63;19.35;;;;;;;17.45;69.61;100414.94;4972359;28;120026;-79
2022/06/07 08:39:25;;;;;;;17.88;15.48;;;;;;;17.43;69.33;100409.13;4994672;28;119350;-79
2022/06/07 08:42:01;;;;;;;23.45;18.00;;;;;;;17.51;69.86;100415.72;4993488;28;119629;-79
2022/06/07 08:44:58;;;;;;;20.98;16.63;;;;;;;17.60;69.51;100407.13;4993142;28;120146;-79
2022/06/07 08:47:49;;;;;;;19.73;16.73;;;;;;;17.66;69.82;100404.34;4994219;28;119481;-78
2022/06/07 08:50:25;;;;;;;21.58;18.05;;;;;;;17.77;70.00;100405.13;4992493;28;119482;-79
2022/06/07 08:52:58;;;;;;;20.02;15.35;;;;;;;17.83;69.58;100396.03;4991794;28;119959;-79
2022/06/07 08:55:36;;;;;;;19.10;14.40;;;;;;;17.87;69.61;100400.06;4991410;28;119836;-79
2022/06/07 08:58:19;;;;;;;15.30;13.80;;;;;;;17.84;69.55;100372.56;4997244;28;119786;-78
2022/06/07 09:00:49;;;;;;;14.38;12.45;;;;;;;17.95;69.33;100389.19;4997807;28;119563;-78
2022/06/07 09:03:18;;;;;;;14.35;11.75;;;;;;;17.98;69.21;100391.72;4985325;28;121469;-79
2022/06/07 09:05:43;;;;;;;13.48;10.30;;;;;;;17.98;68.66;100391.72;4947814;28;121317;-79
2022/06/07 09:08:13;;;;;;;12.45;11.02;;;;;;;17.93;68.58;100380.59;4997420;28;119459;-78
2022/06/07 09:13:35;;;;;;;13.05;11.65;;;;;;;17.89;68.72;100389.19;4978937;28;120531;-79
2022/06/07 09:16:06;;;;;;;13.07;11.65;;;;;;;17.90;68.99;100382.38;4988805;28;119530;-78
2022/06/07 09:18:39;;;;;;;17.00;12.30;;;;;;;17.94;68.50;100384.88;4980592;28;121093;-79
2022/06/07 09:21:16;;;;;;;18.20;13.77;;;;;;;18.01;69.45;100381.63;4995981;28;119446;-79
2022/06/07 09:23:47;;;;;;;13.57;11.90;;;;;;;18.12;69.96;100381.56;4973529;28;120904;-79
2022/06/07 09:26:24;;;;;;;13.88;11.05;;;;;;;18.24;69.90;100382.28;4995859;28;120606;-78
2022/06/07 09:29:04;;;;;;;12.40;9.45;;;;;;;18.30;69.48;100369.91;4994430;28;119472;-79
2022/06/07 09:31:30;;;;;;;14.30;8.48;;;;;;;18.39;69.00;100366.81;4990577;28;119534;-78
2022/06/07 09:34:07;;;;;;;9.90;7.18;;;;;;;18.42;68.59;100363.00;4993412;28;119500;-78
2022/06/07 09:36:37;;;;;;;9.00;6.95;;;;;;;18.44;68.48;100370.06;4994443;28;119736;-79
2022/06/07 09:39:19;;;;;;;9.00;6.35;;;;;;;18.39;68.00;100366.81;4991391;28;120144;-79
2022/06/07 09:41:51;;;;;;;9.98;5.25;;;;;;;18.36;67.40;100364.31;4985511;28;119832;-78
2022/06/07 09:44:26;;;;;;;7.55;5.30;;;;;;;18.33;67.50;100371.66;4994454;28;119592;-78
2022/06/07 09:46:58;;;;;;;7.30;5.20;;;;;;;18.35;67.57;100368.34;4996352;28;120106;-79
2022/06/07 09:49:36;;;;;;;6.72;4.82;;;;;;;18.38;67.33;100368.09;4993690;28;119460;-79
2022/06/07 09:52:28;;;;;;;7.85;5.40;;;;;;;18.40;67.67;100378.69;4995471;28;120667;-79
2022/06/07 09:55:06;;;;;;;11.70;5.43;;;;;;;18.39;67.46;100372.38;4990760;28;119484;-79
2022/06/07 09:57:33;;;;;;;6.88;4.47;;;;;;;18.32;66.83;100364.59;4991933;28;119419;-79
2022/06/07 10:00:32;;;;;;;7.32;4.45;;;;;;;18.30;65.87;100371.91;4992522;28;121921;-79
2022/06/07 10:03:28;;;;;;;7.28;5.05;;;;;;;18.22;66.67;100370.94;4975106;28;119733;-78
2022/06/07 10:06:01;;;;;;;10.73;5.63;;;;;;;18.15;67.42;100365.91;4993173;28;119374;-78
2022/06/07 10:08:45;;;;;;;9.98;6.50;;;;;;;18.15;67.20;100382.56;4993230;28;119504;-79
2022/06/07 10:11:17;;;;;;;12.85;5.95;;;;;;;18.09;67.30;100374.25;4978612;28;119602;-79
2022/06/07 10:14:08;;;;;;;11.07;4.43;;;;;;;18.03;66.96;100385.38;4996824;28;119408;-79
2022/06/07 10:16:52;;;;;;;6.88;3.40;;;;;;;17.95;66.46;100375.31;4992225;28;120581;-78
2022/06/07 10:19:42;;;;;;;7.78;3.60;;;;;;;17.90;66.86;100385.16;4971930;28;119769;-78
2022/06/07 10:22:24;;;;;;;7.32;3.13;;;;;;;17.86;66.79;100384.66;4993602;28;119880;-78
2022/06/07 10:25:21;;;;;;;7.63;3.05;;;;;;;17.87;66.76;100382.66;4990286;28;119554;-78
2022/06/07 10:28:05;;;;;;;8.40;3.03;;;;;;;17.85;67.31;100377.59;4996351;28;119875;-79
2022/06/07 10:30:43;;;;;;;10.68;3.13;;;;;;;17.90;68.09;100384.41;5004353;28;119427;-78
2022/06/07 10:33:15;;;;;;;9.10;3.00;;;;;;;17.93;67.84;100383.38;4995749;28;119383;-78
2022/06/07 10:35:50;;;;;;;5.57;2.95;;;;;;;17.94;67.70;100382.13;4994945;28;119560;-78
2022/06/07 10:38:40;;;;;;;4.32;2.80;;;;;;;17.94;67.88;100380.09;4968104;28;122747;-79
2022/06/07 10:41:21;;;;;;;10.10;3.30;;;;;;;17.97;68.05;100383.88;4990267;28;119254;-79
2022/06/07 10:43:59;;;;;;;8.30;3.10;;;;;;;17.97;67.74;100383.88;4997483;28;119670;-78
2022/06/07 10:46:28;;;;;;;6.80;3.00;;;;;;;17.91;67.23;100383.13;4990641;28;119601;-79
2022/06/07 10:49:05;;;;;;;6.20;2.58;;;;;;;17.91;66.90;100385.91;4993415;28;119433;-79
2022/06/07 10:54:52;;;;;;;7.60;2.60;;;;;;;17.79;67.54;100385.94;4985755;28;119533;-78
2022/06/07 10:57:25;;;;;;;4.10;2.30;;;;;;;17.77;67.28;100393.28;4993463;28;120504;-79
2022/06/07 10:59:52;;;;;;;5.95;2.30;;;;;;;17.76;66.76;100380.66;4994440;28;120260;-79
2022/06/07 11:02:21;;;;;;;5.72;2.08;;;;;;;17.74;66.89;100381.19;4995128;28;119985;-79
2022/06/07 11:11:13;;;;;;;6.72;2.22;;;;;;;17.75;67.66;100390.25;4994891;28;119488;-79
2022/06/07 11:13:49;;;;;;;6.95;2.90;;;;;;;17.82;68.01;100380.66;4995404;28;120537;-78
2022/06/07 11:16:39;;;;;;;8.13;2.40;;;;;;;17.91;68.11;100383.13;4995285;28;119480;-79
2022/06/07 11:19:05;;;;;;;5.97;2.55;;;;;;;17.98;67.62;100365.97;4994779;28;120304;-79
2022/06/07 11:21:33;;;;;;;9.07;2.63;;;;;;;18.02;67.69;100377.56;4993639;28;119492;-79
2022/06/07 11:24:02;;;;;;;5.57;2.40;;;;;;;18.06;67.34;100378.06;4990893;28;119856;-79
2022/06/07 11:26:37;;;;;;;12.98;2.72;;;;;;;18.07;67.45;100374.03;4996269;28;119804;-79
2022/06/07 11:29:08;;;;;;;6.32;2.55;;;;;;;18.08;66.57;100367.19;4992300;28;119774;-79
2022/06/07 11:31:34;;;;;;;6.93;2.25;;;;;;;18.06;66.51;100375.28;4978733;28;119945;-79
2022/06/07 11:34:10;;;;;;;10.35;2.75;;;;;;;18.02;66.68;100374.78;4991859;28;119591;-79
2022/06/07 11:36:42;;;;;;;8.93;2.20;;;;;;;18.02;66.94;100383.13;4982137;28;119640;-79
2022/06/07 11:39:50;;;;;;;11.30;2.58;;;;;;;18.00;67.24;100377.31;4994792;28;119444;-78
2022/06/07 11:42:33;;;;;;;8.07;2.33;;;;;;;17.92;66.50;100387.41;4981789;28;120348;-80
2022/06/07 11:45:03;;;;;;;8.90;2.55;;;;;;;17.86;67.25;100395.75;4992133;28;119475;-79
2022/06/07 11:47:55;;;;;;;10.38;2.45;;;;;;;17.83;67.31;100396.78;4971558;28;121227;-80
2022/06/07 11:50:38;;;;;;;9.52;2.78;;;;;;;17.77;67.67;100396.03;4987830;28;119516;-79
2022/06/07 11:53:21;;;;;;;5.63;2.20;;;;;;;17.76;68.13;100391.75;4990696;28;119693;-79
2022/06/07 11:55:54;;;;;;;9.45;2.80;;;;;;;17.84;68.11;100392.00;4991619;28;119578;-77